This is the latest recevied weather packets stored in our database for station/object VK3BYD-3. If no packets are shown the sender has not sent any weather packets the latest 10 day(s).
| Time | Temp. | Humidity | Pressure | Rain* | Wind** | Luminosity | Snow |
|---|---|---|---|---|---|---|---|
| 1777697065 | 24.44° C | 53% | 1017.7 hPa | 0 mm | - | - | - |
| 1777696165 | 24.44° C | 53% | 1017.7 hPa | 0 mm | - | - | - |
| 1777695264 | 25° C | 51% | 1017.8 hPa | 0 mm | - | - | - |
| 1777694364 | 25° C | 51% | 1018 hPa | 0 mm | - | - | - |
| 1777693465 | 25° C | 51% | 1018 hPa | 0 mm | - | - | - |
| 1777692564 | 24.44° C | 52% | 1018.2 hPa | 0 mm | - | - | - |
| 1777691664 | 24.44° C | 52% | 1018.6 hPa | 0 mm | - | - | - |
| 1777690765 | 23.89° C | 53% | 1018.9 hPa | 0 mm | - | - | - |
| 1777689865 | 24.44° C | 53% | 1019.3 hPa | 0 mm | - | - | - |
| 1777688964 | 23.89° C | 53% | 1019.7 hPa | 0 mm | - | - | - |
| 1777688064 | 23.89° C | 54% | 1020 hPa | 0 mm | - | - | - |
| 1777687165 | 23.89° C | 53% | 1020.3 hPa | 0 mm | - | - | - |
| 1777686264 | 23.89° C | 53% | 1020.5 hPa | 0 mm | - | - | - |
| 1777685364 | 23.33° C | 54% | 1020.6 hPa | 0 mm | - | - | - |
| 1777684464 | 23.33° C | 54% | 1020.9 hPa | 0 mm | - | - | - |
| 1777683565 | 22.78° C | 55% | 1021 hPa | 0 mm | - | - | - |
| 1777682662 | 22.78° C | 54% | 1021.2 hPa | 0 mm | - | - | - |
| 1777681760 | 22.78° C | 54% | 1021.3 hPa | 0 mm | - | - | - |
| 1777680860 | 22.78° C | 54% | 1021.4 hPa | 0 mm | - | - | - |
| 1777679958 | 21.67° C | 55% | 1021.4 hPa | 0 mm | - | - | - |
| 1777679058 | 21.67° C | 57% | 1021.6 hPa | 0 mm | - | - | - |
| 1777678158 | 20.56° C | 60% | 1021.8 hPa | 0 mm | - | - | - |
| 1777677254 | 20.56° C | 60% | 1021.7 hPa | 0 mm | - | - | - |
| 1777676354 | 20° C | 63% | 1021.7 hPa | 0 mm | - | - | - |
| 1777675454 | 18.89° C | 64% | 1021.7 hPa | 0 mm | - | - | - |
* Rain latest hour (hover to see other rain measurements)
** Current wind speed in m/s (hover to see current wind gust speed)